Time;durP1;ratioP1;P1;durP2;ratioP2;P2;SDS_P1;SDS_P2;PMS_P1;PMS_P2;Temp;Humidity;BMP_temperature;BMP_pressure;BME280_temperature;BME280_humidity;BME280_pressure;Samples;Min_cycle;Max_cycle;Signal;HPM_P1;HPM_P2
2022/01/27 00:06:06;;;;;;;;;;;;;;;6.33;72.36;101748.28;6317275;22;19930;-80
2022/01/27 00:11:28;;;;;;;;;;;;;;;6.32;72.46;101743.06;6326157;22;19950;-75
2022/01/27 00:13:58;;;;;;;;;;;;;;;6.32;71.46;101737.63;6288294;22;19911;-74
2022/01/27 00:16:28;;;;;;;;;;;;;;;6.31;71.83;101738.66;6288676;22;19903;-77
2022/01/27 00:18:56;;;;;;;;;;;;;;;6.33;73.42;101742.84;6288629;22;19942;-76
2022/01/27 00:21:25;;;;;;;;;;;;;;;6.54;73.62;101744.56;6290078;22;19903;-75
2022/01/27 00:23:51;;;;;;;;;;;;;;;6.67;72.64;101754.59;6287818;22;19922;-74
2022/01/27 00:26:17;;;;;;;;;;;;;;;6.80;72.76;101751.91;6290094;22;19914;-76
2022/01/27 00:28:44;;;;;;;;;;;;;;;6.89;72.41;101746.25;6289503;22;19903;-75
2022/01/27 00:31:10;;;;;;;;;;;;;;;6.92;71.91;101740.41;6315611;22;19903;-75
2022/01/27 00:33:35;;;;;;;;;;;;;;;6.89;71.57;101735.38;6287625;22;20340;-74
2022/01/27 00:36:02;;;;;;;;;;;;;;;6.84;71.56;101733.28;6288673;22;20210;-75
2022/01/27 00:38:28;;;;;;;;;;;;;;;6.78;71.09;101734.13;6289395;22;19907;-74
2022/01/27 00:40:53;;;;;;;;;;;;;;;6.72;71.02;101740.41;6314767;22;19948;-75
2022/01/27 00:43:19;;;;;;;;;;;;;;;6.75;71.28;101748.97;6263829;22;20223;-75
2022/01/27 00:45:46;;;;;;;;;;;;;;;6.79;71.46;101736.66;6262989;22;19907;-75
2022/01/27 00:48:14;;;;;;;;;;;;;;;6.81;71.11;101731.81;6289072;22;19927;-75
2022/01/27 00:50:41;;;;;;;;;;;;;;;6.76;71.32;101726.19;6315243;22;19979;-75
2022/01/27 00:53:20;;;;;;;;;;;;;;;6.73;71.43;101732.03;6316187;22;20214;-75
2022/01/27 00:55:45;;;;;;;;;;;;;;;6.65;71.48;101729.53;6315843;22;19909;-75
2022/01/27 00:58:29;;;;;;;;;;;;;;;6.63;71.00;101720.75;6288123;22;19903;-76
2022/01/27 01:01:00;;;;;;;;;;;;;;;6.58;71.31;101724.06;6316917;22;19907;-75
2022/01/27 01:03:31;;;;;;;;;;;;;;;6.64;72.28;101728.69;6262894;22;19968;-74
2022/01/27 01:12:09;;;;;;;;;;;;;;;6.71;71.90;101712.38;6314534;22;20328;-75
2022/01/27 01:33:04;;;;;;;;;;;;;;;6.60;72.37;101704.81;6169644;23;19968;-75
2022/01/27 01:35:46;;;;;;;;;;;;;;;6.55;72.41;101702.75;6259247;22;19910;-75
2022/01/27 01:38:11;;;;;;;;;;;;;;;6.52;72.18;101696.91;6265908;22;19914;-75
2022/01/27 01:40:39;;;;;;;;;;;;;;;6.43;72.54;101694.38;6259996;22;19922;-75
2022/01/27 01:43:04;;;;;;;;;;;;;;;6.46;73.31;101693.94;6315772;22;20232;-76
2022/01/27 01:45:36;;;;;;;;;;;;;;;6.55;73.13;101689.16;6313161;22;19907;-76
2022/01/27 01:48:01;;;;;;;;;;;;;;;6.65;73.62;101686.03;6315556;22;19902;-75
2022/01/27 01:50:27;;;;;;;;;;;;;;;6.74;73.41;101689.38;6286382;22;19962;-76
2022/01/27 01:52:53;;;;;;;;;;;;;;;6.92;72.47;101677.84;6288254;22;19913;-76
2022/01/27 01:55:18;;;;;;;;;;;;;;;7.02;72.80;101678.25;6287303;22;19961;-75
2022/01/27 01:57:46;;;;;;;;;;;;;;;7.09;72.25;101689.97;6315458;22;19906;-77
2022/01/27 02:00:13;;;;;;;;;;;;;;;7.12;71.52;101685.97;6288599;22;19913;-77
2022/01/27 02:02:42;;;;;;;;;;;;;;;7.20;71.07;101677.59;6317012;22;19907;-77
2022/01/27 02:05:08;;;;;;;;;;;;;;;7.25;71.06;101683.22;6316642;22;19907;-76
2022/01/27 02:10:05;;;;;;;;;;;;;;;7.32;70.74;101675.88;6316397;22;19926;-75
2022/01/27 02:18:09;;;;;;;;;;;;;;;7.21;70.38;101673.00;6193245;23;20693;-74
2022/01/27 02:20:36;;;;;;;;;;;;;;;7.14;71.10;101668.41;6278791;22;20362;-75
2022/01/27 02:23:05;;;;;;;;;;;;;;;7.20;70.48;101687.63;6317697;22;19902;-75
2022/01/27 02:25:31;;;;;;;;;;;;;;;7.24;71.03;101678.00;6291096;22;19907;-73
2022/01/27 02:27:59;;;;;;;;;;;;;;;7.27;70.72;101673.00;6303917;22;19907;-75
2022/01/27 02:30:25;;;;;;;;;;;;;;;7.29;70.57;101670.06;6304903;22;19915;-76
2022/01/27 02:32:53;;;;;;;;;;;;;;;7.30;70.66;101669.84;6323005;22;20214;-75
2022/01/27 02:35:21;;;;;;;;;;;;;;;7.32;70.62;101666.91;6289643;22;19903;-75
2022/01/27 02:37:46;;;;;;;;;;;;;;;7.37;71.54;101669.78;6316016;22;19946;-75
2022/01/27 02:40:18;;;;;;;;;;;;;;;7.42;71.32;101664.56;6318412;22;19929;-75
2022/01/27 02:42:43;;;;;;;;;;;;;;;7.39;71.89;101648.66;6317306;22;19903;-74
2022/01/27 02:45:12;;;;;;;;;;;;;;;7.46;71.61;101654.06;6290388;22;19956;-75
2022/01/27 02:47:38;;;;;;;;;;;;;;;7.49;71.42;101649.03;6289364;22;19903;-75
2022/01/27 02:50:06;;;;;;;;;;;;;;;7.54;71.22;101645.66;6289172;22;20256;-75
2022/01/27 02:52:31;;;;;;;;;;;;;;;7.54;71.48;101634.78;6318888;22;20281;-76
2022/01/27 02:55:00;;;;;;;;;;;;;;;7.56;71.46;101637.28;6288645;22;19906;-75
2022/01/27 02:57:40;;;;;;;;;;;;;;;7.57;71.54;101638.97;6286009;22;20281;-77
2022/01/27 03:00:06;;;;;;;;;;;;;;;7.61;71.29;101634.75;6265675;22;19922;-77
2022/01/27 03:02:42;;;;;;;;;;;;;;;;;;;;;
2022/01/27 03:05:08;;;;;;;;;;;;;;;7.62;71.16;101628.25;6316375;22;19941;-77
2022/01/27 03:07:36;;;;;;;;;;;;;;;7.66;71.78;101626.78;6315276;22;19911;-74
2022/01/27 03:10:04;;;;;;;;;;;;;;;7.68;70.40;101635.53;6262794;22;19918;-76
2022/01/27 03:12:30;;;;;;;;;;;;;;;7.72;71.15;101631.34;6286632;22;19903;-75
2022/01/27 03:14:58;;;;;;;;;;;;;;;7.72;71.22;101625.88;6316020;22;19907;-74
2022/01/27 03:17:23;;;;;;;;;;;;;;;7.71;70.99;101629.69;6315566;22;19907;-73
2022/01/27 03:19:51;;;;;;;;;;;;;;;7.76;70.28;101632.56;6324372;22;19913;-72
2022/01/27 03:22:16;;;;;;;;;;;;;;;7.88;69.86;101623.72;6327754;22;19903;-72
2022/01/27 03:24:44;;;;;;;;;;;;;;;7.90;69.71;101625.19;6325742;22;19922;-73
2022/01/27 03:27:20;;;;;;;;;;;;;;;7.95;70.23;101624.53;6283589;22;19925;-73
2022/01/27 03:29:45;;;;;;;;;;;;;;;7.92;69.85;101624.97;6285271;22;19913;-75
2022/01/27 03:32:13;;;;;;;;;;;;;;;7.95;70.05;101624.53;6286781;22;19907;-74
2022/01/27 03:34:41;;;;;;;;;;;;;;;7.93;70.01;101623.88;6310681;22;19929;-74
2022/01/27 03:37:06;;;;;;;;;;;;;;;7.95;70.55;101611.72;6281245;22;19914;-73
2022/01/27 03:39:32;;;;;;;;;;;;;;;7.98;70.04;101610.47;6312242;22;19903;-72
2022/01/27 03:41:58;;;;;;;;;;;;;;;7.95;69.60;101605.44;6312741;22;19907;-73
2022/01/27 03:44:23;;;;;;;;;;;;;;;7.93;69.70;101610.28;6285071;22;19947;-74
2022/01/27 03:46:49;;;;;;;;;;;;;;;7.91;70.19;101609.66;6312707;22;19926;-73
2022/01/27 03:49:15;;;;;;;;;;;;;;;7.82;70.61;101604.47;6286790;22;19950;-74
2022/01/27 03:51:40;;;;;;;;;;;;;;;7.79;71.22;101614.97;6312017;22;19911;-72
2022/01/27 03:54:06;;;;;;;;;;;;;;;7.74;71.94;101622.94;6287458;22;20241;-74
2022/01/27 03:56:31;;;;;;;;;;;;;;;7.77;71.87;101617.06;6315813;22;19902;-74
2022/01/27 03:58:57;;;;;;;;;;;;;;;7.83;71.25;101608.88;6315543;22;19906;-75
2022/01/27 04:01:22;;;;;;;;;;;;;;;7.90;71.70;101616.16;6261465;22;19907;-73
2022/01/27 04:03:48;;;;;;;;;;;;;;;7.93;70.96;101615.72;6315036;22;19910;-74
2022/01/27 04:06:21;;;;;;;;;;;;;;;7.99;70.68;101610.25;6314345;22;19945;-73
2022/01/27 04:08:46;;;;;;;;;;;;;;;7.99;70.81;101620.31;6284348;22;19911;-74
2022/01/27 04:11:11;;;;;;;;;;;;;;;7.88;71.16;101618.28;6286083;22;19937;-74
2022/01/27 04:13:37;;;;;;;;;;;;;;;7.78;71.37;101619.59;6283423;22;19922;-73
2022/01/27 04:16:03;;;;;;;;;;;;;;;7.78;71.14;101619.59;6314133;22;19907;-74
2022/01/27 04:18:29;;;;;;;;;;;;;;;7.74;70.83;101614.78;6314137;22;19929;-74
2022/01/27 04:20:54;;;;;;;;;;;;;;;7.68;71.97;101611.03;6285261;22;19910;-74
2022/01/27 04:23:23;;;;;;;;;;;;;;;7.73;71.54;101616.69;6314981;22;19956;-74
2022/01/27 04:25:48;;;;;;;;;;;;;;;7.84;71.51;101616.00;6313389;22;19915;-75
2022/01/27 04:28:19;;;;;;;;;;;;;;;7.88;72.05;101613.66;6313700;22;19902;-74
2022/01/27 04:30:48;;;;;;;;;;;;;;;7.94;71.83;101611.94;6313899;22;20040;-74
2022/01/27 04:33:14;;;;;;;;;;;;;;;7.95;72.04;101608.19;6313442;22;19914;-74
2022/01/27 04:35:45;;;;;;;;;;;;;;;7.93;72.41;101596.66;6314208;22;19902;-76
2022/01/27 04:40:56;;;;;;;;;;;;;;;7.96;72.34;101588.88;6325093;22;19989;-76
2022/01/27 04:46:32;;;;;;;;;;;;;;;8.07;71.72;101578.34;6315025;22;20273;-76
2022/01/27 04:49:01;;;;;;;;;;;;;;;8.07;72.41;101579.16;6288243;22;19907;-76
2022/01/27 04:51:30;;;;;;;;;;;;;;;8.12;71.93;101579.34;6315875;22;19910;-76
2022/01/27 04:56:29;;;;;;;;;;;;;;;8.15;71.88;101570.72;6325650;22;19985;-74
2022/01/27 04:58:59;;;;;;;;;;;;;;;8.15;72.19;101553.56;6315321;22;19962;-75
2022/01/27 05:01:38;;;;;;;;;;;;;;;8.13;72.12;101559.22;6288628;22;19903;-75
2022/01/27 05:04:10;;;;;;;;;;;;;;;8.09;72.23;101566.16;6316362;22;20399;-75
2022/01/27 05:06:35;;;;;;;;;;;;;;;8.02;72.30;101570.84;6288622;22;19914;-75
2022/01/27 05:09:10;;;;;;;;;;;;;;;8.02;72.69;101579.00;6323463;22;19977;-74
2022/01/27 05:11:42;;;;;;;;;;;;;;;8.02;72.49;101570.84;6285789;22;19907;-73
2022/01/27 05:14:16;;;;;;;;;;;;;;;8.03;72.73;101561.59;6288051;22;20274;-76
2022/01/27 05:16:42;;;;;;;;;;;;;;;8.04;72.67;101557.81;6262429;22;19907;-75
2022/01/27 05:19:15;;;;;;;;;;;;;;;8.02;72.45;101554.50;6288484;22;20281;-75
2022/01/27 05:21:41;;;;;;;;;;;;;;;8.01;72.27;101550.09;6312478;22;19907;-75
2022/01/27 05:24:07;;;;;;;;;;;;;;;7.97;72.44;101551.56;6313979;22;20017;-74
2022/01/27 05:26:36;;;;;;;;;;;;;;;8.00;73.48;101562.03;6315940;22;20335;-74
2022/01/27 05:29:05;;;;;;;;;;;;;;;7.95;73.31;101559.97;6313827;22;19903;-75
2022/01/27 05:31:30;;;;;;;;;;;;;;;7.88;74.12;101547.47;6311910;22;19907;-75
2022/01/27 05:33:58;;;;;;;;;;;;;;;7.84;73.33;101556.09;6312037;22;19964;-75
2022/01/27 05:36:33;;;;;;;;;;;;;;;;;;;;;
2022/01/27 05:39:02;;;;;;;;;;;;;;;7.74;74.45;101552.16;6313932;22;19942;-76
2022/01/27 05:41:28;;;;;;;;;;;;;;;7.76;74.96;101550.88;6289113;22;19933;-75
2022/01/27 05:44:01;;;;;;;;;;;;;;;7.72;74.66;101551.56;6264046;22;19907;-75
2022/01/27 05:46:27;;;;;;;;;;;;;;;7.75;75.43;101554.66;6288887;22;19989;-75
2022/01/27 05:48:53;;;;;;;;;;;;;;;7.78;75.39;101547.94;6289907;22;19929;-76
2022/01/27 05:51:20;;;;;;;;;;;;;;;7.78;75.32;101547.94;6287501;22;19911;-75
2022/01/27 05:53:46;;;;;;;;;;;;;;;7.82;75.13;101541.84;6290136;22;20005;-75
2022/01/27 05:56:11;;;;;;;;;;;;;;;7.84;75.15;101538.88;6315234;22;20179;-75
2022/01/27 05:58:36;;;;;;;;;;;;;;;7.82;75.38;101539.09;6314952;22;20036;-74
2022/01/27 06:01:24;;;;;;;;;;;;;;;7.85;75.64;101544.09;6289583;22;19985;-75
2022/01/27 06:03:51;;;;;;;;;;;;;;;7.84;75.56;101537.03;6316787;22;19903;-74
2022/01/27 06:06:16;;;;;;;;;;;;;;;7.89;76.00;101538.25;6289175;22;20317;-74
2022/01/27 06:08:44;;;;;;;;;;;;;;;7.87;75.50;101535.75;6328039;22;19955;-74
2022/01/27 06:11:09;;;;;;;;;;;;;;;7.90;75.65;101535.31;6330547;22;20348;-75
2022/01/27 06:13:36;;;;;;;;;;;;;;;7.89;76.12;101539.06;6326222;22;19902;-77
2022/01/27 06:16:08;;;;;;;;;;;;;;;7.92;75.29;101527.72;6317332;22;19926;-74
2022/01/27 06:18:33;;;;;;;;;;;;;;;7.90;75.75;101534.44;6317152;22;19903;-74
2022/01/27 06:21:03;;;;;;;;;;;;;;;7.94;76.29;101535.69;6292118;22;19957;-74
2022/01/27 06:23:28;;;;;;;;;;;;;;;7.97;75.79;101535.22;6317197;22;19913;-73
2022/01/27 06:25:53;;;;;;;;;;;;;;;7.98;75.28;101536.91;6282502;22;20880;-74
2022/01/27 06:28:19;;;;;;;;;;;;;;;7.98;75.76;101536.91;6283508;22;20037;-74
2022/01/27 06:30:47;;;;;;;;;;;;;;;8.00;75.67;101532.06;6285578;22;19978;-76
2022/01/27 06:33:12;;;;;;;;;;;;;;;7.93;75.34;101523.97;6284020;22;19949;-74
2022/01/27 06:35:38;;;;;;;;;;;;;;;7.89;76.22;101511.00;6283488;22;19914;-75
2022/01/27 06:38:04;;;;;;;;;;;;;;;7.88;75.47;101515.59;6284495;22;20306;-75
2022/01/27 06:40:29;;;;;;;;;;;;;;;7.83;75.74;101502.66;6283505;22;19907;-75
2022/01/27 06:42:55;;;;;;;;;;;;;;;7.83;75.35;101519.00;6283799;22;19907;-74
2022/01/27 06:45:20;;;;;;;;;;;;;;;7.76;75.36;101501.88;6285192;22;19907;-74
2022/01/27 06:47:45;;;;;;;;;;;;;;;7.71;75.74;101500.88;6285048;22;20316;-75
2022/01/27 06:50:31;;;;;;;;;;;;;;;7.66;75.68;101501.53;6286362;22;19907;-74
2022/01/27 06:52:57;;;;;;;;;;;;;;;7.62;75.86;101500.28;6283609;22;19965;-75
2022/01/27 06:55:22;;;;;;;;;;;;;;;7.59;75.22;101508.91;6285271;22;19903;-75
2022/01/27 06:57:49;;;;;;;;;;;;;;;7.59;76.20;101503.47;6283728;22;19946;-74
2022/01/27 07:00:15;;;;;;;;;;;;;;;7.55;75.95;101505.81;6283470;22;19903;-74
2022/01/27 07:02:40;;;;;;;;;;;;;;;7.56;76.34;101493.00;6285273;22;19910;-76
2022/01/27 07:05:13;;;;;;;;;;;;;;;7.63;76.24;101489.19;6285339;22;19942;-75
2022/01/27 07:07:39;;;;;;;;;;;;;;;7.56;76.99;101503.91;6287220;22;19982;-74
2022/01/27 07:10:04;;;;;;;;;;;;;;;7.60;77.19;101502.41;6285931;22;20284;-74
2022/01/27 07:12:30;;;;;;;;;;;;;;;7.63;77.28;101491.91;6284572;22;19914;-74
2022/01/27 07:14:55;;;;;;;;;;;;;;;7.55;76.88;101499.50;6285946;22;19943;-73
2022/01/27 07:17:21;;;;;;;;;;;;;;;7.56;76.79;101495.75;6285261;22;19911;-75
2022/01/27 07:19:47;;;;;;;;;;;;;;;7.58;77.25;101499.91;6286867;22;19907;-75
2022/01/27 07:22:30;;;;;;;;;;;;;;;7.59;78.39;101500.75;6285621;22;19907;-75
2022/01/27 07:24:56;;;;;;;;;;;;;;;7.68;77.96;101510.31;6301435;22;19942;-73
2022/01/27 07:27:21;;;;;;;;;;;;;;;7.72;78.12;101511.53;6316650;22;19929;-74
2022/01/27 07:29:47;;;;;;;;;;;;;;;7.81;77.65;101521.13;6316758;22;19960;-74
2022/01/27 07:32:12;;;;;;;;;;;;;;;7.81;77.99;101526.56;6317520;22;19911;-74
2022/01/27 07:34:38;;;;;;;;;;;;;;;7.85;77.71;101516.88;6318328;22;19903;-75
2022/01/27 07:37:03;;;;;;;;;;;;;;;7.93;77.45;101525.84;6318693;22;20241;-77
2022/01/27 07:42:19;;;;;;;;;;;;;;;8.03;77.98;101523.44;6270801;22;20498;-74
2022/01/27 07:44:47;;;;;;;;;;;;;;;8.12;77.72;101538.47;6264291;22;19907;-78
2022/01/27 07:47:12;;;;;;;;;;;;;;;8.14;77.93;101536.34;6318888;22;19981;-78
2022/01/27 07:49:45;;;;;;;;;;;;;;;8.22;77.62;101538.00;6292396;22;19910;-78
2022/01/27 07:52:20;;;;;;;;;;;;;;;8.21;78.22;101550.75;6291277;22;19902;-78
2022/01/27 07:54:49;;;;;;;;;;;;;;;8.30;78.51;101534.13;6318919;22;19903;-80
2022/01/27 07:57:19;;;;;;;;;;;;;;;8.41;77.36;101549.75;6319956;22;19903;-77
2022/01/27 07:59:45;;;;;;;;;;;;;;;8.36;77.91;101539.50;6320045;22;19907;-78
2022/01/27 08:02:10;;;;;;;;;;;;;;;8.39;77.73;101538.22;6320871;22;19981;-78
2022/01/27 08:04:35;;;;;;;;;;;;;;;8.36;78.04;101527.78;6266937;22;19906;-75
2022/01/27 08:07:02;;;;;;;;;;;;;;;8.47;78.09;101540.72;6318710;22;19930;-77
2022/01/27 08:09:27;;;;;;;;;;;;;;;8.46;77.38;101536.31;6316214;22;19906;-78
2022/01/27 08:11:53;;;;;;;;;;;;;;;8.44;78.09;101538.44;6315869;22;19907;-77
2022/01/27 08:14:18;;;;;;;;;;;;;;;8.49;77.95;101548.66;6315600;22;19910;-78
2022/01/27 08:16:44;;;;;;;;;;;;;;;8.55;78.05;101542.31;6282954;22;19929;-77
2022/01/27 08:19:09;;;;;;;;;;;;;;;8.64;78.59;101551.03;6316920;22;19973;-78
2022/01/27 08:21:35;;;;;;;;;;;;;;;8.71;77.43;101547.16;6269153;22;20099;-79
2022/01/27 08:24:02;;;;;;;;;;;;;;;8.79;77.83;101542.47;6299501;22;19918;-79
2022/01/27 08:26:40;;;;;;;;;;;;;;;8.80;77.92;101546.88;6268451;22;19935;-78
2022/01/27 08:29:21;;;;;;;;;;;;;;;8.89;77.87;101556.41;6314101;22;19922;-77
2022/01/27 08:34:41;;;;;;;;;;;;;;;9.03;77.72;101557.09;6327668;22;19913;-78
2022/01/27 08:37:07;;;;;;;;;;;;;;;9.11;78.06;101555.97;6314807;22;20009;-78
2022/01/27 08:39:56;;;;;;;;;;;;;;;9.19;77.93;101559.22;6316889;22;19909;-80
2022/01/27 08:42:21;;;;;;;;;;;;;;;9.17;78.28;101560.50;6309482;22;19956;-78
2022/01/27 08:44:46;;;;;;;;;;;;;;;9.23;78.14;101560.44;6307559;22;20528;-77
2022/01/27 08:47:12;;;;;;;;;;;;;;;9.30;77.85;101556.78;6263413;22;19907;-78
2022/01/27 08:49:42;;;;;;;;;;;;;;;9.33;77.92;101545.38;6289989;22;19918;-78
2022/01/27 08:52:08;;;;;;;;;;;;;;;9.34;78.12;101542.44;6287921;22;19982;-78
2022/01/27 08:54:33;;;;;;;;;;;;;;;9.40;78.15;101532.50;6289376;22;19907;-79
2022/01/27 08:56:58;;;;;;;;;;;;;;;9.46;78.16;101547.13;6288905;22;19910;-77
2022/01/27 08:59:29;;;;;;;;;;;;;;;9.48;77.96;101540.38;6288684;22;19907;-79
2022/01/27 09:01:57;;;;;;;;;;;;;;;9.48;78.12;101555.94;6289367;22;19918;-74
2022/01/27 09:04:25;;;;;;;;;;;;;;;9.55;78.05;101557.50;6287853;22;19910;-74
2022/01/27 09:06:50;;;;;;;;;;;;;;;9.65;77.87;101556.09;6314899;22;19907;-77
2022/01/27 09:09:16;;;;;;;;;;;;;;;9.66;77.90;101571.41;6316206;22;19952;-78
2022/01/27 09:11:46;;;;;;;;;;;;;;;9.74;77.81;101573.84;6289822;22;19964;-76
2022/01/27 09:14:13;;;;;;;;;;;;;;;9.73;77.83;101583.09;6265280;22;19929;-76
2022/01/27 09:16:43;;;;;;;;;;;;;;;9.79;77.61;101587.63;6317431;22;19906;-75
2022/01/27 09:19:10;;;;;;;;;;;;;;;9.83;77.37;101588.81;6316752;22;19903;-76
2022/01/27 09:21:47;;;;;;;;;;;;;;;9.87;78.06;101591.91;6291790;22;19903;-77
2022/01/27 09:24:17;;;;;;;;;;;;;;;9.88;77.46;101580.75;6290345;22;20335;-76
2022/01/27 09:26:52;;;;;;;;;;;;;;;9.93;77.52;101596.47;6316824;22;19978;-75
2022/01/27 09:29:20;;;;;;;;;;;;;;;9.93;77.52;101591.81;6267229;22;19933;-75
2022/01/27 09:31:46;;;;;;;;;;;;;;;9.90;77.74;101595.03;6264170;22;20229;-77
2022/01/27 09:34:19;;;;;;;;;;;;;;;9.94;77.81;101604.44;6317594;22;19933;-76
2022/01/27 09:36:47;;;;;;;;;;;;;;;9.89;78.25;101601.53;6264473;22;19918;-76
2022/01/27 09:39:14;;;;;;;;;;;;;;;9.89;78.48;101601.53;6291393;22;20222;-76
2022/01/27 09:41:43;;;;;;;;;;;;;;;9.86;78.96;101610.22;6266332;22;19918;-76
2022/01/27 09:47:11;;;;;;;;;;;;;;;9.72;80.28;101617.75;6330624;22;19952;-77
2022/01/27 09:49:39;;;;;;;;;;;;;;;9.77;80.59;101608.88;6270203;22;19934;-78
2022/01/27 09:55:15;;;;;;;;;;;;;;;9.85;80.33;101616.72;6317322;22;19929;-76
2022/01/27 10:00:45;;;;;;;;;;;;;;;;;;;;;
2022/01/27 10:15:46;;;;;;;;;;;;;;;10.33;80.61;101622.34;6162910;23;20301;-75
2022/01/27 10:18:51;;;;;;;;;;;;;;;;;;;;;
2022/01/27 10:21:46;;;;;;;;;;;;;;;;;;;;;
2022/01/27 10:24:24;;;;;;;;;;;;;;;10.52;79.55;101621.19;6164930;23;19924;-74
2022/01/27 10:27:16;;;;;;;;;;;;;;;10.54;79.99;101624.53;6177122;23;19904;-74
2022/01/27 10:29:50;;;;;;;;;;;;;;;10.59;79.68;101627.38;6256245;23;20044;-69
2022/01/27 10:32:16;;;;;;;;;;;;;;;10.71;79.70;101634.78;6223835;23;19918;-69
2022/01/27 10:34:54;;;;;;;;;;;;;;;10.82;79.37;101625.75;6249827;23;20234;-70
2022/01/27 10:37:20;;;;;;;;;;;;;;;10.88;79.61;101624.78;6251028;23;19903;-71
2022/01/27 10:39:46;;;;;;;;;;;;;;;10.93;79.14;101635.84;6253139;23;19999;-72
2022/01/27 10:42:12;;;;;;;;;;;;;;;10.97;78.91;101634.28;6254173;23;19911;-72
2022/01/27 10:44:48;;;;;;;;;;;;;;;10.96;78.86;101638.09;6253681;23;19949;-73
2022/01/27 10:47:18;;;;;;;;;;;;;;;10.99;78.34;101631.31;6227277;23;19915;-72
2022/01/27 10:49:50;;;;;;;;;;;;;;;11.03;78.53;101642.63;6228511;23;19903;-73
2022/01/27 10:52:46;;;;;;;;;;;;;;;11.06;78.23;101640.22;6227304;23;19908;-75
2022/01/27 10:55:19;;;;;;;;;;;;;;;11.08;78.04;101640.00;6255738;23;19923;-71
2022/01/27 10:57:50;;;;;;;;;;;;;;;11.09;78.13;101652.63;6230930;23;19903;-72
2022/01/27 11:00:17;;;;;;;;;;;;;;;11.04;77.46;101628.69;6207938;23;19930;-70
2022/01/27 11:02:53;;;;;;;;;;;;;;;11.11;77.44;101644.97;6255123;23;20289;-71
2022/01/27 11:05:21;;;;;;;;;;;;;;;11.14;77.88;101634.41;6258424;22;19912;-70
2022/01/27 11:07:47;;;;;;;;;;;;;;;11.19;78.02;101630.94;6253953;23;19918;-73
2022/01/27 11:10:49;;;;;;;;;;;;;;;11.33;77.57;101632.34;6252941;23;19907;-71
2022/01/27 11:13:23;;;;;;;;;;;;;;;11.49;77.72;101629.91;6176613;23;20245;-72
2022/01/27 11:15:48;;;;;;;;;;;;;;;11.65;77.13;101628.31;6253788;22;19965;-71
2022/01/27 11:18:15;;;;;;;;;;;;;;;11.80;76.86;101634.09;6252753;23;19955;-70
2022/01/27 11:21:00;;;;;;;;;;;;;;;12.00;77.11;101630.94;6251463;23;19955;-70
2022/01/27 11:26:11;;;;;;;;;;;;;;;12.32;74.55;101627.63;6264002;22;19949;-71
2022/01/27 11:28:41;;;;;;;;;;;;;;;12.30;73.92;101624.31;6255015;22;19907;-75
2022/01/27 11:31:24;;;;;;;;;;;;;;;12.28;74.73;101631.97;6255125;22;20264;-73
2022/01/27 11:34:28;;;;;;;;;;;;;;;12.26;73.99;101633.31;6254336;23;19907;-74
2022/01/27 11:37:21;;;;;;;;;;;;;;;12.24;74.04;101628.06;6113349;23;20524;-72
2022/01/27 11:39:47;;;;;;;;;;;;;;;12.23;74.86;101634.63;6254289;22;19911;-74
2022/01/27 11:42:13;;;;;;;;;;;;;;;12.28;74.96;101631.97;6253787;23;19904;-75
2022/01/27 11:44:45;;;;;;;;;;;;;;;12.31;74.28;101631.47;6254371;22;19914;-74
2022/01/27 11:47:12;;;;;;;;;;;;;;;12.28;74.46;101642.09;6252306;22;19911;-73
2022/01/27 11:50:01;;;;;;;;;;;;;;;12.21;75.14;101643.09;6249861;23;19915;-75
2022/01/27 11:52:32;;;;;;;;;;;;;;;12.14;75.56;101638.84;6246887;22;19911;-75
2022/01/27 11:55:17;;;;;;;;;;;;;;;12.14;75.18;101644.34;6263015;23;19918;-73
2022/01/27 11:57:45;;;;;;;;;;;;;;;12.12;75.88;101643.75;6253063;23;19909;-73
2022/01/27 12:00:21;;;;;;;;;;;;;;;12.08;75.49;101639.84;6251339;23;19914;-76
2022/01/27 12:02:55;;;;;;;;;;;;;;;12.09;75.32;101628.63;6252932;22;19990;-73
2022/01/27 12:05:21;;;;;;;;;;;;;;;12.10;75.58;101641.25;6252536;23;20315;-76
2022/01/27 12:08:05;;;;;;;;;;;;;;;12.10;75.91;101641.25;6227545;23;19911;-76
2022/01/27 12:10:52;;;;;;;;;;;;;;;12.14;75.95;101641.59;6251222;23;19911;-75
2022/01/27 12:13:36;;;;;;;;;;;;;;;12.14;76.18;101647.09;6253807;22;19914;-74
2022/01/27 12:19:00;;;;;;;;;;;;;;;12.17;76.39;101649.31;6251844;22;19908;-75
2022/01/27 12:21:34;;;;;;;;;;;;;;;12.15;77.00;101644.09;6252126;23;19903;-76
2022/01/27 12:24:21;;;;;;;;;;;;;;;12.12;77.10;101643.75;6249604;23;19907;-75
2022/01/27 12:26:50;;;;;;;;;;;;;;;12.20;77.03;101644.16;6251226;23;20315;-75
2022/01/27 12:29:35;;;;;;;;;;;;;;;12.31;77.15;101642.44;6250912;23;19914;-73
2022/01/27 12:32:06;;;;;;;;;;;;;;;12.49;76.38;101643.28;6248192;23;19904;-73
2022/01/27 12:34:32;;;;;;;;;;;;;;;12.58;75.51;101650.84;6251798;22;19911;-72
2022/01/27 12:37:18;;;;;;;;;;;;;;;12.74;74.99;101640.13;6248117;23;19983;-73
2022/01/27 12:39:57;;;;;;;;;;;;;;;12.98;74.58;101638.03;6225548;23;20219;-74
2022/01/27 12:42:28;;;;;;;;;;;;;;;13.12;73.45;101643.16;6261178;23;19951;-72
2022/01/27 12:44:57;;;;;;;;;;;;;;;13.30;73.45;101648.31;6264269;23;19931;-77
2022/01/27 12:47:25;;;;;;;;;;;;;;;13.50;72.50;101652.47;6260561;23;19904;-78
2022/01/27 12:50:02;;;;;;;;;;;;;;;13.75;71.76;101652.75;6263306;22;19904;-76
2022/01/27 12:52:30;;;;;;;;;;;;;;;13.87;70.29;101662.78;6252400;23;19989;-76
2022/01/27 12:54:55;;;;;;;;;;;;;;;13.94;69.93;101669.75;6228091;23;19911;-71
2022/01/27 12:57:25;;;;;;;;;;;;;;;13.93;69.24;101665.34;6251287;23;19994;-72
2022/01/27 12:59:51;;;;;;;;;;;;;;;13.95;69.68;101665.09;6251715;22;19907;-74
2022/01/27 13:02:17;;;;;;;;;;;;;;;13.88;69.23;101661.69;6250594;23;19934;-73
2022/01/27 13:04:43;;;;;;;;;;;;;;;13.79;70.12;101673.16;6250068;23;20354;-73
2022/01/27 13:07:09;;;;;;;;;;;;;;;13.71;70.00;101676.38;6251719;22;19918;-72
2022/01/27 13:09:35;;;;;;;;;;;;;;;13.59;69.98;101673.75;6249421;22;20252;-71
2022/01/27 13:12:17;;;;;;;;;;;;;;;13.52;70.12;101658.53;6253019;22;19904;-75
2022/01/27 13:18:15;;;;;;;;;;;;;;;14.14;70.14;101646.28;6204302;22;19926;-76
2022/01/27 13:20:55;;;;;;;;;;;;;;;14.87;67.25;101639.50;6251948;23;19903;-74
2022/01/27 13:23:41;;;;;;;;;;;;;;;14.96;65.02;101643.41;6253379;23;19943;-73
2022/01/27 13:26:13;;;;;;;;;;;;;;;15.49;65.82;101637.88;6254581;23;19975;-73
2022/01/27 13:28:46;;;;;;;;;;;;;;;16.72;63.71;101634.50;6253267;23;19908;-74
2022/01/27 13:31:19;;;;;;;;;;;;;;;17.57;59.03;101627.38;6253997;23;20286;-75
2022/01/27 13:33:45;;;;;;;;;;;;;;;17.98;56.43;101645.72;6253615;22;19989;-75
2022/01/27 13:36:18;;;;;;;;;;;;;;;17.88;55.90;101639.06;6254044;22;19908;-76
2022/01/27 13:39:10;;;;;;;;;;;;;;;17.33;55.35;101635.47;6251899;23;19907;-74
2022/01/27 13:41:42;;;;;;;;;;;;;;;16.86;57.00;101637.50;6253168;22;19930;-72
2022/01/27 13:44:12;;;;;;;;;;;;;;;16.74;57.88;101640.56;6254022;22;19907;-74
2022/01/27 13:46:56;;;;;;;;;;;;;;;16.60;57.29;101645.81;6252597;23;19904;-73
2022/01/27 13:49:25;;;;;;;;;;;;;;;17.00;58.25;101649.66;6254032;22;19903;-73
2022/01/27 13:52:17;;;;;;;;;;;;;;;17.30;56.36;101660.91;6254271;22;19907;-73
2022/01/27 13:54:44;;;;;;;;;;;;;;;17.82;57.35;101669.84;6246671;23;19907;-75
2022/01/27 13:57:10;;;;;;;;;;;;;;;18.19;56.05;101669.34;6254298;23;19903;-75
2022/01/27 13:59:42;;;;;;;;;;;;;;;18.63;54.40;101687.00;6255991;23;19974;-74
2022/01/27 14:02:21;;;;;;;;;;;;;;;19.95;52.93;101687.84;6258153;22;19907;-73
2022/01/27 14:04:54;;;;;;;;;;;;;;;20.08;50.26;101692.66;6230069;23;19934;-75
2022/01/27 14:07:24;;;;;;;;;;;;;;;19.49;50.53;101689.22;6256701;23;19908;-75
2022/01/27 14:09:51;;;;;;;;;;;;;;;18.64;50.74;101686.72;6255884;23;20306;-77
2022/01/27 14:12:24;;;;;;;;;;;;;;;17.96;52.59;101688.31;6230141;23;19915;-76
2022/01/27 14:14:50;;;;;;;;;;;;;;;17.49;53.70;101686.00;6256565;23;19903;-77
2022/01/27 14:17:26;;;;;;;;;;;;;;;17.25;54.96;101690.22;6256431;23;19945;-78
2022/01/27 14:19:58;;;;;;;;;;;;;;;16.93;55.79;101683.09;6256675;23;19929;-76
2022/01/27 14:22:29;;;;;;;;;;;;;;;16.65;56.70;101680.91;6256504;23;19958;-75
2022/01/27 14:25:16;;;;;;;;;;;;;;;16.42;57.20;101699.66;6230813;23;19946;-77
2022/01/27 14:27:42;;;;;;;;;;;;;;;16.17;57.30;101698.50;6231079;23;19903;-75
2022/01/27 14:30:14;;;;;;;;;;;;;;;16.00;58.17;101697.91;6206874;23;19908;-76